sensor_id;sensor_type;location;lat;lon;timestamp;pressure;altitude;pressure_sealevel;temperature;humidity
42691;BME280;28306;55.744;37.578;2023-03-14T00:01:50;99524.47;;;13.61;23.13
42691;BME280;28306;55.744;37.578;2023-03-14T00:04:15;99528.06;;;13.75;23.15
42691;BME280;28306;55.744;37.578;2023-03-14T00:06:41;99518.34;;;13.95;22.93
42691;BME280;28306;55.744;37.578;2023-03-14T00:09:06;99516.72;;;14.01;22.73
42691;BME280;28306;55.744;37.578;2023-03-14T00:11:32;99508.47;;;13.96;23.25
42691;BME280;28306;55.744;37.578;2023-03-14T00:13:57;99502.91;;;13.97;23.02
42691;BME280;28306;55.744;37.578;2023-03-14T00:16:24;99490.44;;;14.11;23.19
42691;BME280;28306;55.744;37.578;2023-03-14T00:18:50;99484.13;;;14.19;22.76
42691;BME280;28306;55.744;37.578;2023-03-14T00:21:16;99466.88;;;14.28;22.89
42691;BME280;28306;55.744;37.578;2023-03-14T00:23:42;99477.41;;;14.43;22.28
42691;BME280;28306;55.744;37.578;2023-03-14T00:26:08;99462.16;;;14.37;22.40
42691;BME280;28306;55.744;37.578;2023-03-14T00:28:34;99455.91;;;14.16;22.54
42691;BME280;28306;55.744;37.578;2023-03-14T00:31:03;99450.75;;;14.15;22.91
42691;BME280;28306;55.744;37.578;2023-03-14T00:33:29;99450.94;;;14.13;22.64
42691;BME280;28306;55.744;37.578;2023-03-14T00:35:56;99448.25;;;14.13;23.01
42691;BME280;28306;55.744;37.578;2023-03-14T00:38:21;99454.41;;;14.07;22.93
42691;BME280;28306;55.744;37.578;2023-03-14T00:40:47;99451.94;;;14.05;22.67
42691;BME280;28306;55.744;37.578;2023-03-14T00:43:12;99447.25;;;14.14;23.11
42691;BME280;28306;55.744;37.578;2023-03-14T00:45:38;99447.88;;;14.16;22.94
42691;BME280;28306;55.744;37.578;2023-03-14T00:48:03;99451.13;;;14.05;23.45
42691;BME280;28306;55.744;37.578;2023-03-14T00:50:29;99454.41;;;14.07;23.04
42691;BME280;28306;55.744;37.578;2023-03-14T00:52:54;99451.94;;;14.05;23.22
42691;BME280;28306;55.744;37.578;2023-03-14T00:55:20;99442.88;;;14.06;23.34
42691;BME280;28306;55.744;37.578;2023-03-14T00:57:45;99434.72;;;14.21;22.91
42691;BME280;28306;55.744;37.578;2023-03-14T01:00:12;99436.38;;;14.22;23.32
42691;BME280;28306;55.744;37.578;2023-03-14T01:02:38;99415.25;;;14.41;22.94
42691;BME280;28306;55.744;37.578;2023-03-14T01:05:04;99430.72;;;14.52;23.03
42691;BME280;28306;55.744;37.578;2023-03-14T01:07:30;99435.25;;;14.58;22.71
42691;BME280;28306;55.744;37.578;2023-03-14T01:09:55;99433.59;;;14.57;23.06
42691;BME280;28306;55.744;37.578;2023-03-14T01:12:20;99424.97;;;14.55;23.12
42691;BME280;28306;55.744;37.578;2023-03-14T01:14:46;99428.66;;;14.54;23.24
42691;BME280;28306;55.744;37.578;2023-03-14T01:17:11;99431.19;;;14.63;23.09
42691;BME280;28306;55.744;37.578;2023-03-14T01:19:37;99426.16;;;14.53;23.43
42691;BME280;28306;55.744;37.578;2023-03-14T01:22:02;99423.94;;;14.56;23.38
42691;BME280;28306;55.744;37.578;2023-03-14T01:24:28;99409.72;;;14.56;23.72
42691;BME280;28306;55.744;37.578;2023-03-14T01:26:54;99394.94;;;14.67;23.51
42691;BME280;28306;55.744;37.578;2023-03-14T01:29:19;99383.00;;;14.69;23.75
42691;BME280;28306;55.744;37.578;2023-03-14T01:31:45;99367.16;;;14.61;24.31
42691;BME280;28306;55.744;37.578;2023-03-14T01:34:11;99366.66;;;14.57;24.25
42691;BME280;28306;55.744;37.578;2023-03-14T01:36:36;99372.03;;;14.51;24.67
42691;BME280;28306;55.744;37.578;2023-03-14T01:39:02;99355.75;;;14.52;24.09
42691;BME280;28306;55.744;37.578;2023-03-14T01:41:28;99353.78;;;14.81;24.09
42691;BME280;28306;55.744;37.578;2023-03-14T01:43:56;99363.88;;;14.92;23.74
42691;BME280;28306;55.744;37.578;2023-03-14T01:48:52;99344.31;;;14.99;24.04
42691;BME280;28306;55.744;37.578;2023-03-14T01:51:30;99331.28;;;15.29;23.90
42691;BME280;28306;55.744;37.578;2023-03-14T01:56:48;99335.22;;;14.93;24.82
42691;BME280;28306;55.744;37.578;2023-03-14T01:59:15;99334.59;;;14.77;24.86
42691;BME280;28306;55.744;37.578;2023-03-14T02:01:41;99323.03;;;14.57;25.16
42691;BME280;28306;55.744;37.578;2023-03-14T02:04:08;99310.09;;;14.74;24.27
42691;BME280;28306;55.744;37.578;2023-03-14T02:06:58;99315.44;;;14.81;24.53
42691;BME280;28306;55.744;37.578;2023-03-14T02:09:23;99311.34;;;14.78;25.01
42691;BME280;28306;55.744;37.578;2023-03-14T02:11:49;99318.13;;;14.87;24.72
42691;BME280;28306;55.744;37.578;2023-03-14T02:14:41;99308.00;;;15.16;24.68
42691;BME280;28306;55.744;37.578;2023-03-14T02:17:30;99305.13;;;15.18;25.10
42691;BME280;28306;55.744;37.578;2023-03-14T02:22:44;99274.66;;;14.99;25.08
42691;BME280;28306;55.744;37.578;2023-03-14T02:25:25;99272.97;;;15.11;24.85
42691;BME280;28306;55.744;37.578;2023-03-14T02:27:53;99276.44;;;15.25;24.68
42691;BME280;28306;55.744;37.578;2023-03-14T02:30:20;99260.09;;;15.46;24.63
42691;BME280;28306;55.744;37.578;2023-03-14T02:32:52;99244.03;;;15.40;24.98
42691;BME280;28306;55.744;37.578;2023-03-14T02:35:21;99241.78;;;15.37;25.09
42691;BME280;28306;55.744;37.578;2023-03-14T02:40:41;99225.13;;;15.21;25.79
42691;BME280;28306;55.744;37.578;2023-03-14T02:43:07;99224.06;;;15.29;25.00
42691;BME280;28306;55.744;37.578;2023-03-14T02:45:36;99211.91;;;15.26;25.79
42691;BME280;28306;55.744;37.578;2023-03-14T02:48:04;99212.94;;;15.32;25.52
42691;BME280;28306;55.744;37.578;2023-03-14T02:50:33;99209.22;;;15.26;25.53
42691;BME280;28306;55.744;37.578;2023-03-14T02:52:59;99206.34;;;15.28;25.76
42691;BME280;28306;55.744;37.578;2023-03-14T02:55:25;99208.63;;;15.24;25.61
42691;BME280;28306;55.744;37.578;2023-03-14T02:57:55;99201.19;;;15.33;24.92
42691;BME280;28306;55.744;37.578;2023-03-14T03:00:20;99210.06;;;15.27;25.40
42691;BME280;28306;55.744;37.578;2023-03-14T03:02:46;99207.88;;;15.04;25.88
42691;BME280;28306;55.744;37.578;2023-03-14T03:05:13;99210.34;;;14.99;26.27
42691;BME280;28306;55.744;37.578;2023-03-14T03:07:39;99217.56;;;14.91;26.24
42691;BME280;28306;55.744;37.578;2023-03-14T03:10:04;99216.94;;;14.96;25.97
42691;BME280;28306;55.744;37.578;2023-03-14T03:12:30;99205.59;;;15.01;25.90
42691;BME280;28306;55.744;37.578;2023-03-14T03:14:55;99208.72;;;14.91;26.52
42691;BME280;28306;55.744;37.578;2023-03-14T03:17:21;99186.25;;;14.99;25.93
42691;BME280;28306;55.744;37.578;2023-03-14T03:19:46;99203.09;;;15.19;25.73
42691;BME280;28306;55.744;37.578;2023-03-14T03:22:12;99191.09;;;15.28;25.50
42691;BME280;28306;55.744;37.578;2023-03-14T03:24:40;99194.13;;;15.39;25.80
42691;BME280;28306;55.744;37.578;2023-03-14T03:27:05;99174.97;;;15.35;25.94
42691;BME280;28306;55.744;37.578;2023-03-14T03:29:31;99174.16;;;15.35;25.65
42691;BME280;28306;55.744;37.578;2023-03-14T03:31:57;99165.28;;;15.34;25.85
42691;BME280;28306;55.744;37.578;2023-03-14T03:34:22;99167.41;;;15.25;25.92
42691;BME280;28306;55.744;37.578;2023-03-14T03:36:51;99150.06;;;15.28;25.56
42691;BME280;28306;55.744;37.578;2023-03-14T03:39:16;99145.06;;;15.38;26.10
42691;BME280;28306;55.744;37.578;2023-03-14T03:41:45;99149.25;;;15.27;26.32
42691;BME280;28306;55.744;37.578;2023-03-14T03:44:11;99147.59;;;15.26;26.09
42691;BME280;28306;55.744;37.578;2023-03-14T03:46:38;99138.72;;;15.26;25.77
42691;BME280;28306;55.744;37.578;2023-03-14T03:49:04;99136.34;;;15.49;25.68
42691;BME280;28306;55.744;37.578;2023-03-14T03:51:29;99124.63;;;15.44;26.30
42691;BME280;28306;55.744;37.578;2023-03-14T03:53:56;99128.03;;;15.58;25.92
42691;BME280;28306;55.744;37.578;2023-03-14T03:56:27;99122.16;;;15.74;25.98
42691;BME280;28306;55.744;37.578;2023-03-14T03:58:52;99112.25;;;15.75;25.74
42691;BME280;28306;55.744;37.578;2023-03-14T04:01:18;99131.28;;;15.66;25.57
42691;BME280;28306;55.744;37.578;2023-03-14T04:03:47;99104.41;;;15.73;25.81
42691;BME280;28306;55.744;37.578;2023-03-14T04:06:13;99119.63;;;15.86;25.86
42691;BME280;28306;55.744;37.578;2023-03-14T04:08:41;99113.72;;;16.02;25.19
42691;BME280;28306;55.744;37.578;2023-03-14T04:11:12;99104.66;;;16.03;25.67
42691;BME280;28306;55.744;37.578;2023-03-14T04:13:56;99093.56;;;16.18;25.56
42691;BME280;28306;55.744;37.578;2023-03-14T04:16:23;99100.13;;;16.23;25.69
42691;BME280;28306;55.744;37.578;2023-03-14T04:18:50;99102.41;;;16.00;25.85
42691;BME280;28306;55.744;37.578;2023-03-14T04:21:19;99093.13;;;15.96;25.82
42691;BME280;28306;55.744;37.578;2023-03-14T04:23:48;99107.69;;;16.07;25.84
42691;BME280;28306;55.744;37.578;2023-03-14T04:26:14;99084.69;;;16.18;25.59
42691;BME280;28306;55.744;37.578;2023-03-14T04:28:40;99086.81;;;16.09;26.17
42691;BME280;28306;55.744;37.578;2023-03-14T04:31:07;99092.03;;;16.04;25.99
42691;BME280;28306;55.744;37.578;2023-03-14T04:33:33;99083.63;;;16.19;25.86
42691;BME280;28306;55.744;37.578;2023-03-14T04:35:59;99075.78;;;16.43;25.30
42691;BME280;28306;55.744;37.578;2023-03-14T04:38:24;99063.84;;;16.38;25.79
42691;BME280;28306;55.744;37.578;2023-03-14T04:40:51;99072.66;;;16.46;25.63
42691;BME280;28306;55.744;37.578;2023-03-14T04:43:19;99060.53;;;16.55;25.59
42691;BME280;28306;55.744;37.578;2023-03-14T04:45:49;99067.72;;;16.61;25.13
42691;BME280;28306;55.744;37.578;2023-03-14T04:48:15;99053.78;;;16.71;25.08
42691;BME280;28306;55.744;37.578;2023-03-14T04:50:40;99064.44;;;16.78;24.89
42691;BME280;28306;55.744;37.578;2023-03-14T04:53:06;99049.25;;;16.83;25.33
42691;BME280;28306;55.744;37.578;2023-03-14T04:55:32;99048.59;;;17.06;25.21
42691;BME280;28306;55.744;37.578;2023-03-14T04:57:58;99041.59;;;17.05;25.11
42691;BME280;28306;55.744;37.578;2023-03-14T05:00:24;99040.75;;;17.05;25.17
42691;BME280;28306;55.744;37.578;2023-03-14T05:02:50;99033.66;;;17.10;25.14
42691;BME280;28306;55.744;37.578;2023-03-14T05:05:48;99030.78;;;16.93;25.51
42691;BME280;28306;55.744;37.578;2023-03-14T05:08:37;99009.06;;;16.95;25.49
42691;BME280;28306;55.744;37.578;2023-03-14T05:11:22;99019.72;;;16.83;25.45
42691;BME280;28306;55.744;37.578;2023-03-14T05:14:06;99018.59;;;16.91;25.71
42691;BME280;28306;55.744;37.578;2023-03-14T05:16:50;99018.16;;;16.94;25.51
42691;BME280;28306;55.744;37.578;2023-03-14T05:19:54;99006.47;;;16.88;25.73
42691;BME280;28306;55.744;37.578;2023-03-14T05:22:37;99008.03;;;16.96;25.50
42691;BME280;28306;55.744;37.578;2023-03-14T05:25:22;99005.47;;;17.01;25.27
42691;BME280;28306;55.744;37.578;2023-03-14T05:27:52;99004.78;;;17.06;25.51
42691;BME280;28306;55.744;37.578;2023-03-14T05:30:30;99004.38;;;16.90;25.83
42691;BME280;28306;55.744;37.578;2023-03-14T05:33:10;99013.53;;;17.01;25.18
42691;BME280;28306;55.744;37.578;2023-03-14T05:35:56;99019.84;;;17.07;25.58
42691;BME280;28306;55.744;37.578;2023-03-14T05:38:40;99024.69;;;17.17;25.41
42691;BME280;28306;55.744;37.578;2023-03-14T05:41:24;99025.44;;;17.36;25.25
42691;BME280;28306;55.744;37.578;2023-03-14T05:44:15;99029.66;;;17.43;25.15
42691;BME280;28306;55.744;37.578;2023-03-14T05:47:00;99034.81;;;17.57;24.91
42691;BME280;28306;55.744;37.578;2023-03-14T05:49:46;99024.66;;;17.71;24.68
42691;BME280;28306;55.744;37.578;2023-03-14T05:52:32;99026.19;;;17.67;24.75
42691;BME280;28306;55.744;37.578;2023-03-14T05:55:17;99028.41;;;17.70;24.70
42691;BME280;28306;55.744;37.578;2023-03-14T05:58:06;99038.22;;;17.64;24.70
42691;BME280;28306;55.744;37.578;2023-03-14T06:00:44;99048.75;;;17.65;24.65
42691;BME280;28306;55.744;37.578;2023-03-14T06:03:20;99046.06;;;17.65;24.86
42691;BME280;28306;55.744;37.578;2023-03-14T06:05:49;99047.00;;;17.59;24.60
42691;BME280;28306;55.744;37.578;2023-03-14T06:08:14;99035.41;;;17.59;24.74
42691;BME280;28306;55.744;37.578;2023-03-14T06:10:40;99046.63;;;17.56;24.91
42691;BME280;28306;55.744;37.578;2023-03-14T06:13:06;99030.03;;;17.71;24.68
42691;BME280;28306;55.744;37.578;2023-03-14T06:15:33;99033.91;;;17.87;24.46
42691;BME280;28306;55.744;37.578;2023-03-14T06:17:58;99033.00;;;17.81;24.28
42691;BME280;28306;55.744;37.578;2023-03-14T06:20:25;99018.00;;;17.73;24.62
42691;BME280;28306;55.744;37.578;2023-03-14T06:22:51;99020.66;;;17.61;24.66
42691;BME280;28306;55.744;37.578;2023-03-14T06:25:17;99012.38;;;17.63;24.70
42691;BME280;28306;55.744;37.578;2023-03-14T06:27:45;99022.31;;;17.62;24.60
42691;BME280;28306;55.744;37.578;2023-03-14T06:30:11;99024.69;;;17.82;24.36
42691;BME280;28306;55.744;37.578;2023-03-14T06:32:36;99009.75;;;17.98;24.36
42691;BME280;28306;55.744;37.578;2023-03-14T06:35:06;99009.84;;;18.04;24.19
42691;BME280;28306;55.744;37.578;2023-03-14T06:37:36;99008.78;;;18.16;24.05
42691;BME280;28306;55.744;37.578;2023-03-14T06:40:02;99006.31;;;18.27;23.98
42691;BME280;28306;55.744;37.578;2023-03-14T06:42:51;99005.13;;;18.23;23.90
42691;BME280;28306;55.744;37.578;2023-03-14T06:45:19;98991.47;;;18.12;24.08
42691;BME280;28306;55.744;37.578;2023-03-14T06:47:46;98990.91;;;18.10;23.97
42691;BME280;28306;55.744;37.578;2023-03-14T06:50:12;98990.75;;;18.05;24.00
42691;BME280;28306;55.744;37.578;2023-03-14T06:52:38;98983.41;;;18.12;24.17
42691;BME280;28306;55.744;37.578;2023-03-14T06:55:07;98991.91;;;18.21;23.77
42691;BME280;28306;55.744;37.578;2023-03-14T06:57:32;98997.91;;;18.23;23.63
42691;BME280;28306;55.744;37.578;2023-03-14T06:59:58;98995.44;;;18.10;23.88
42691;BME280;28306;55.744;37.578;2023-03-14T07:02:24;99001.31;;;18.18;23.95
42691;BME280;28306;55.744;37.578;2023-03-14T07:04:51;99000.94;;;18.15;24.16
42691;BME280;28306;55.744;37.578;2023-03-14T07:07:16;99006.44;;;18.20;23.81
42691;BME280;28306;55.744;37.578;2023-03-14T07:09:42;98997.06;;;18.23;23.92
42691;BME280;28306;55.744;37.578;2023-03-14T07:12:08;98998.47;;;18.37;23.76
42691;BME280;28306;55.744;37.578;2023-03-14T07:14:33;99002.06;;;18.43;23.51
42691;BME280;28306;55.744;37.578;2023-03-14T07:16:59;99003.22;;;18.47;23.46
42691;BME280;28306;55.744;37.578;2023-03-14T07:19:25;99009.91;;;18.44;23.54
42691;BME280;28306;55.744;37.578;2023-03-14T07:21:50;99017.31;;;18.37;23.74
42691;BME280;28306;55.744;37.578;2023-03-14T07:24:20;99016.94;;;18.33;23.75
42691;BME280;28306;55.744;37.578;2023-03-14T07:26:46;99015.44;;;18.26;23.71
42691;BME280;28306;55.744;37.578;2023-03-14T07:29:11;99018.97;;;18.26;23.75
42691;BME280;28306;55.744;37.578;2023-03-14T07:31:39;99016.59;;;18.30;23.81
42691;BME280;28306;55.744;37.578;2023-03-14T07:34:05;99013.31;;;18.40;23.63
42691;BME280;28306;55.744;37.578;2023-03-14T07:36:35;99023.34;;;18.56;23.65
42691;BME280;28306;55.744;37.578;2023-03-14T07:39:01;99012.59;;;18.56;23.72
42691;BME280;28306;55.744;37.578;2023-03-14T07:41:53;99014.56;;;18.49;24.04
42691;BME280;28306;55.744;37.578;2023-03-14T07:44:24;99023.00;;;18.52;23.94
42691;BME280;28306;55.744;37.578;2023-03-14T07:46:50;99008.97;;;18.50;23.64
42691;BME280;28306;55.744;37.578;2023-03-14T07:49:15;99012.50;;;18.39;23.87
42691;BME280;28306;55.744;37.578;2023-03-14T07:51:41;99018.59;;;18.23;24.00
42691;BME280;28306;55.744;37.578;2023-03-14T07:54:06;99023.66;;;18.19;24.08
42691;BME280;28306;55.744;37.578;2023-03-14T07:56:32;99020.16;;;18.18;23.97
42691;BME280;28306;55.744;37.578;2023-03-14T07:58:58;99012.88;;;18.19;24.01
42691;BME280;28306;55.744;37.578;2023-03-14T08:01:24;99008.78;;;18.28;23.97
42691;BME280;28306;55.744;37.578;2023-03-14T08:03:50;99018.31;;;18.48;23.60
42691;BME280;28306;55.744;37.578;2023-03-14T08:06:15;99011.03;;;18.60;23.55
42691;BME280;28306;55.744;37.578;2023-03-14T08:08:41;99028.38;;;18.64;23.66
42691;BME280;28306;55.744;37.578;2023-03-14T08:11:06;99024.25;;;18.73;23.51
42691;BME280;28306;55.744;37.578;2023-03-14T08:13:34;99032.75;;;18.82;23.43
42691;BME280;28306;55.744;37.578;2023-03-14T08:15:59;99043.28;;;18.84;23.58
42691;BME280;28306;55.744;37.578;2023-03-14T08:18:25;99034.41;;;18.83;23.73
42691;BME280;28306;55.744;37.578;2023-03-14T08:20:51;99033.22;;;18.79;23.63
42691;BME280;28306;55.744;37.578;2023-03-14T08:23:16;99037.81;;;18.79;23.87
42691;BME280;28306;55.744;37.578;2023-03-14T08:25:41;99043.19;;;18.79;23.78
42691;BME280;28306;55.744;37.578;2023-03-14T08:28:07;99041.69;;;18.83;24.06
42691;BME280;28306;55.744;37.578;2023-03-14T08:30:32;99045.91;;;18.79;23.71
42691;BME280;28306;55.744;37.578;2023-03-14T08:32:58;99042.28;;;18.85;23.93
42691;BME280;28306;55.744;37.578;2023-03-14T08:35:24;99033.81;;;18.93;23.91
42691;BME280;28306;55.744;37.578;2023-03-14T08:37:50;99022.53;;;18.96;23.90
42691;BME280;28306;55.744;37.578;2023-03-14T08:40:17;99033.22;;;18.79;24.08
42691;BME280;28306;55.744;37.578;2023-03-14T08:42:43;99026.53;;;18.53;24.27
42691;BME280;28306;55.744;37.578;2023-03-14T08:45:10;99033.56;;;18.42;24.68
42691;BME280;28306;55.744;37.578;2023-03-14T08:47:35;99035.09;;;18.50;24.06
42691;BME280;28306;55.744;37.578;2023-03-14T08:50:01;99035.66;;;18.52;24.35
42691;BME280;28306;55.744;37.578;2023-03-14T08:52:26;99032.16;;;18.51;24.02
42691;BME280;28306;55.744;37.578;2023-03-14T08:54:52;99033.66;;;18.47;24.23
42691;BME280;28306;55.744;37.578;2023-03-14T08:57:17;99032.16;;;18.51;24.29
42691;BME280;28306;55.744;37.578;2023-03-14T08:59:43;99030.84;;;18.54;24.16
42691;BME280;28306;55.744;37.578;2023-03-14T09:02:12;99025.56;;;18.59;23.94
42691;BME280;28306;55.744;37.578;2023-03-14T09:04:37;99016.09;;;18.57;24.01
42691;BME280;28306;55.744;37.578;2023-03-14T09:07:02;99013.63;;;18.55;23.89
42691;BME280;28306;55.744;37.578;2023-03-14T09:09:28;99009.66;;;18.58;23.93
42691;BME280;28306;55.744;37.578;2023-03-14T09:11:53;99011.16;;;18.53;23.90
42691;BME280;28306;55.744;37.578;2023-03-14T09:14:19;99015.38;;;18.49;23.85
42691;BME280;28306;55.744;37.578;2023-03-14T09:16:44;99013.72;;;18.60;23.87
42691;BME280;28306;55.744;37.578;2023-03-14T09:19:10;99017.44;;;18.71;23.85
42691;BME280;28306;55.744;37.578;2023-03-14T09:21:35;99016.56;;;18.82;23.56
42691;BME280;28306;55.744;37.578;2023-03-14T09:24:02;99029.59;;;18.85;23.59
42691;BME280;28306;55.744;37.578;2023-03-14T09:26:28;99023.47;;;19.02;23.61
42691;BME280;28306;55.744;37.578;2023-03-14T09:28:53;99021.69;;;19.07;23.25
42691;BME280;28306;55.744;37.578;2023-03-14T09:31:18;99026.56;;;19.11;23.13
42691;BME280;28306;55.744;37.578;2023-03-14T09:33:44;99026.34;;;19.12;23.10
42691;BME280;28306;55.744;37.578;2023-03-14T09:36:09;99033.28;;;19.08;23.17
42691;BME280;28306;55.744;37.578;2023-03-14T09:38:35;99026.25;;;19.07;23.20
42691;BME280;28306;55.744;37.578;2023-03-14T09:41:01;99023.50;;;19.19;23.31
42691;BME280;28306;55.744;37.578;2023-03-14T09:43:29;99024.63;;;19.23;22.95
42691;BME280;28306;55.744;37.578;2023-03-14T09:45:54;99017.88;;;19.20;23.10
42691;BME280;28306;55.744;37.578;2023-03-14T09:48:22;99020.09;;;19.23;22.94
42691;BME280;28306;55.744;37.578;2023-03-14T09:50:54;99023.59;;;19.24;23.03
42691;BME280;28306;55.744;37.578;2023-03-14T09:53:24;99026.03;;;19.25;22.86
42691;BME280;28306;55.744;37.578;2023-03-14T09:55:51;99028.25;;;19.29;22.93
42691;BME280;28306;55.744;37.578;2023-03-14T09:58:19;99018.53;;;19.27;23.00
42691;BME280;28306;55.744;37.578;2023-03-14T10:00:45;99024.16;;;19.26;22.75
42691;BME280;28306;55.744;37.578;2023-03-14T10:05:41;99026.84;;;19.26;22.90
42691;BME280;28306;55.744;37.578;2023-03-14T10:08:10;99023.44;;;19.31;22.55
42691;BME280;28306;55.744;37.578;2023-03-14T10:10:36;99025.63;;;19.34;22.73
42691;BME280;28306;55.744;37.578;2023-03-14T10:13:16;99030.88;;;19.23;23.00
42691;BME280;28306;55.744;37.578;2023-03-14T10:15:43;99007.28;;;19.02;23.36
42691;BME280;28306;55.744;37.578;2023-03-14T10:18:12;98995.25;;;18.93;23.27
42691;BME280;28306;55.744;37.578;2023-03-14T10:20:39;98981.97;;;19.03;23.53
42691;BME280;28306;55.744;37.578;2023-03-14T10:23:18;98991.50;;;18.94;23.51
42691;BME280;28306;55.744;37.578;2023-03-14T10:26:23;98980.38;;;18.90;23.46
42691;BME280;28306;55.744;37.578;2023-03-14T10:28:41;98986.78;;;19.01;23.46
42691;BME280;28306;55.744;37.578;2023-03-14T10:31:08;98992.16;;;19.01;23.66
42691;BME280;28306;55.744;37.578;2023-03-14T10:33:34;99004.59;;;19.02;23.42
42691;BME280;28306;55.744;37.578;2023-03-14T10:36:00;99001.34;;;19.00;23.20
42691;BME280;28306;55.744;37.578;2023-03-14T10:38:30;99005.72;;;18.89;23.53
42691;BME280;28306;55.744;37.578;2023-03-14T10:40:56;99006.72;;;19.00;23.53
42691;BME280;28306;55.744;37.578;2023-03-14T10:43:33;98994.63;;;19.02;23.27
42691;BME280;28306;55.744;37.578;2023-03-14T10:46:08;98983.09;;;19.07;23.23
42691;BME280;28306;55.744;37.578;2023-03-14T10:48:54;98977.56;;;19.14;23.13
42691;BME280;28306;55.744;37.578;2023-03-14T10:51:24;98975.13;;;19.29;22.93
42691;BME280;28306;55.744;37.578;2023-03-14T10:56:32;98973.41;;;19.40;22.79
42691;BME280;28306;55.744;37.578;2023-03-14T10:58:59;98975.56;;;19.38;22.71
42691;BME280;28306;55.744;37.578;2023-03-14T11:03:57;98970.47;;;19.41;22.90
42691;BME280;28306;55.744;37.578;2023-03-14T11:09:00;98967.69;;;19.36;22.53
42691;BME280;28306;55.744;37.578;2023-03-14T11:11:30;98954.53;;;19.40;22.74
42691;BME280;28306;55.744;37.578;2023-03-14T11:16:34;98944.22;;;19.54;22.52
42691;BME280;28306;55.744;37.578;2023-03-14T11:19:25;98940.53;;;19.60;22.36
42691;BME280;28306;55.744;37.578;2023-03-14T11:27:18;98971.38;;;19.81;22.01
42691;BME280;28306;55.744;37.578;2023-03-14T11:29:50;98974.16;;;19.69;22.11
42691;BME280;28306;55.744;37.578;2023-03-14T11:35:05;98979.22;;;19.66;22.05
42691;BME280;28306;55.744;37.578;2023-03-14T11:37:40;98970.16;;;19.72;22.25
42691;BME280;28306;55.744;37.578;2023-03-14T11:40:19;98983.25;;;19.80;21.79
42691;BME280;28306;55.744;37.578;2023-03-14T11:42:47;98980.34;;;19.70;21.91
42691;BME280;28306;55.744;37.578;2023-03-14T11:45:18;98967.78;;;19.58;22.01
42691;BME280;28306;55.744;37.578;2023-03-14T11:47:47;98969.81;;;19.51;22.18
42691;BME280;28306;55.744;37.578;2023-03-14T11:50:27;98979.38;;;19.59;22.11
42691;BME280;28306;55.744;37.578;2023-03-14T11:53:39;98984.78;;;19.59;21.92
42691;BME280;28306;55.744;37.578;2023-03-14T11:55:43;98983.31;;;19.51;22.03
42691;BME280;28306;55.744;37.578;2023-03-14T12:00:38;98999.97;;;19.48;22.22
42691;BME280;28306;55.744;37.578;2023-03-14T12:03:14;98990.75;;;19.61;22.14
42691;BME280;28306;55.744;37.578;2023-03-14T12:05:45;98994.84;;;19.63;22.06
42691;BME280;28306;55.744;37.578;2023-03-14T12:11:15;98985.84;;;19.92;21.70
42691;BME280;28306;55.744;37.578;2023-03-14T12:13:39;98998.78;;;19.90;21.46
42691;BME280;28306;55.744;37.578;2023-03-14T12:16:06;98988.97;;;19.84;21.82
42691;BME280;28306;55.744;37.578;2023-03-14T12:18:36;98997.97;;;19.89;21.37
42691;BME280;28306;55.744;37.578;2023-03-14T12:21:07;98998.06;;;19.77;21.68
42691;BME280;28306;55.744;37.578;2023-03-14T12:23:39;98995.44;;;19.66;21.62
42691;BME280;28306;55.744;37.578;2023-03-14T12:28:38;99005.06;;;19.61;21.75
42691;BME280;28306;55.744;37.578;2023-03-14T12:33:49;98992.47;;;19.67;21.73
42691;BME280;28306;55.744;37.578;2023-03-14T12:41:48;99015.78;;;19.39;21.82
42691;BME280;28306;55.744;37.578;2023-03-14T12:46:54;99017.31;;;19.52;21.88
42691;BME280;28306;55.744;37.578;2023-03-14T12:49:19;99010.94;;;19.58;21.79
42691;BME280;28306;55.744;37.578;2023-03-14T12:51:46;99005.34;;;19.77;21.88
42691;BME280;28306;55.744;37.578;2023-03-14T12:59:31;99011.81;;;20.15;21.80
42691;BME280;28306;55.744;37.578;2023-03-14T13:06:57;98997.56;;;20.20;21.57
42691;BME280;28306;55.744;37.578;2023-03-14T13:11:55;98990.03;;;20.22;21.57
42691;BME280;28306;55.744;37.578;2023-03-14T13:14:22;99002.28;;;20.29;21.37
42691;BME280;28306;55.744;37.578;2023-03-14T13:16:48;98989.03;;;20.28;21.55
42691;BME280;28306;55.744;37.578;2023-03-14T13:19:35;98988.66;;;20.19;21.44
42691;BME280;28306;55.744;37.578;2023-03-14T13:22:01;98995.75;;;20.03;21.70
42691;BME280;28306;55.744;37.578;2023-03-14T13:24:27;98989.63;;;19.91;21.59
42691;BME280;28306;55.744;37.578;2023-03-14T13:26:54;98983.78;;;19.99;21.73
42691;BME280;28306;55.744;37.578;2023-03-14T13:29:23;98990.91;;;20.05;21.47
42691;BME280;28306;55.744;37.578;2023-03-14T13:31:51;98986.06;;;20.07;21.40
42691;BME280;28306;55.744;37.578;2023-03-14T13:34:17;98986.56;;;19.87;21.60
42691;BME280;28306;55.744;37.578;2023-03-14T13:36:42;98992.00;;;19.70;21.82
42691;BME280;28306;55.744;37.578;2023-03-14T13:39:18;98995.19;;;19.67;21.84
42691;BME280;28306;55.744;37.578;2023-03-14T13:41:44;98992.06;;;19.75;21.61
42691;BME280;28306;55.744;37.578;2023-03-14T13:44:15;98992.31;;;19.74;21.90
42691;BME280;28306;55.744;37.578;2023-03-14T13:46:41;98999.66;;;19.61;21.56
42691;BME280;28306;55.744;37.578;2023-03-14T13:49:09;98989.44;;;19.63;21.43
42691;BME280;28306;55.744;37.578;2023-03-14T13:51:38;98995.56;;;19.59;21.51
42691;BME280;28306;55.744;37.578;2023-03-14T13:54:11;98999.91;;;19.43;21.80
42691;BME280;28306;55.744;37.578;2023-03-14T13:56:38;98994.34;;;19.50;21.85
42691;BME280;28306;55.744;37.578;2023-03-14T13:59:03;98992.88;;;19.59;21.82
42691;BME280;28306;55.744;37.578;2023-03-14T14:01:32;99004.63;;;19.53;21.91
42691;BME280;28306;55.744;37.578;2023-03-14T14:04:02;99006.69;;;19.45;21.70